Terminal Aerodrome Forecast
Issued by NWS Blacksburg, VA

Current Version | Previous Version | Graphics & Text | Print | Product List | Glossary On
Versions: 1 2 3 4 5 6 7 8 9 10 11 12 13 14 15 16 17 18 19 20 21 22 23 24 25 26 27 28 29 30 31 32 33 34 35 36 37
048
FTUS41 KRNK 241923 AAA
TAFBLF
TAF AMD
KBLF 241923Z 2419/2518 24011G21KT P6SM VCSH BKN040
      TEMPO 2420/2422 4SM SHRA OVC025
     FM242300 20009KT P6SM VCSH BKN070
     FM250600 18009KT P6SM BKN050
     FM251400 23011KT 6SM -SHRA OVC050
     FM251600 24011KT 3SM SHRA OVC025=

USA.gov is the U.S. government's official web portal to all federal, state and local government web resources and services.